createdAt,value
2023-01-01T00:02:26.293Z,89.58
2023-01-01T00:04:55.144Z,90.40
2023-01-01T00:07:22.048Z,91.37
2023-01-01T00:10:07.399Z,91.24
2023-01-01T00:12:34.788Z,89.30
2023-01-01T00:15:01.708Z,88.26
2023-01-01T00:17:30.210Z,88.16
2023-01-01T00:19:57.106Z,88.46
2023-01-01T00:25:14.199Z,89.88
2023-01-01T00:27:44.166Z,90.68
2023-01-01T00:30:11.805Z,91.21
2023-01-01T00:32:38.803Z,91.31
2023-01-01T00:35:06.243Z,92.07
2023-01-01T00:37:33.172Z,91.18
2023-01-01T00:40:00.089Z,92.01
2023-01-01T00:42:27.085Z,90.19
2023-01-01T00:44:53.986Z,88.87
2023-01-01T00:47:20.977Z,89.07
2023-01-01T00:49:48.080Z,88.96
2023-01-01T00:52:14.941Z,87.68
2023-01-01T00:54:41.866Z,89.58
2023-01-01T00:57:08.763Z,92.28
2023-01-01T00:59:35.710Z,95.74
2023-01-01T01:02:02.869Z,97.62
2023-01-01T01:04:29.946Z,98.34
2023-01-01T01:06:56.979Z,97.83
2023-01-01T01:09:23.848Z,96.40
2023-01-01T01:11:50.746Z,94.83
2023-01-01T01:14:37.734Z,94.36
2023-01-01T01:17:04.784Z,94.52
2023-01-01T01:19:31.748Z,93.29
2023-01-01T01:21:58.651Z,90.77
2023-01-01T01:24:25.616Z,88.86
2023-01-01T01:26:53.584Z,89.15
2023-01-01T01:29:20.429Z,89.91
2023-01-01T01:31:47.369Z,89.77
2023-01-01T01:34:16.467Z,91.55
2023-01-01T01:36:43.941Z,92.53
2023-01-01T01:39:12.093Z,92.64
2023-01-01T01:41:38.950Z,92.58
2023-01-01T01:45:03.205Z,93.38
2023-01-01T01:47:38.485Z,96.58
2023-01-01T01:50:05.538Z,98.44
2023-01-01T01:52:34.850Z,98.96
2023-01-01T01:55:03.878Z,99.48
2023-01-01T01:57:31.876Z,100.00
2023-01-01T02:00:02.481Z,99.88
2023-01-01T02:02:39.442Z,98.82
2023-01-01T02:05:07.261Z,97.65
2023-01-01T02:07:35.019Z,95.31
2023-01-01T02:10:04.179Z,92.54
2023-01-01T02:12:31.224Z,86.68
2023-01-01T02:14:58.283Z,85.22
2023-01-01T02:17:39.084Z,83.40
2023-01-01T02:20:38.758Z,83.71
2023-01-01T02:23:20.676Z,84.79
2023-01-01T02:26:38.780Z,86.96
2023-01-01T02:30:13.702Z,95.64
2023-01-01T02:32:45.811Z,97.57
2023-01-01T02:35:35.888Z,98.36
2023-01-01T02:38:11.288Z,99.38
2023-01-01T02:40:44.567Z,100.00
2023-01-01T02:43:11.424Z,100.00
2023-01-01T02:45:38.631Z,100.00
2023-01-01T02:48:54.481Z,100.00
2023-01-01T02:51:55.494Z,100.00
2023-01-01T02:54:38.936Z,100.00
2023-01-01T02:57:11.397Z,100.00
2023-01-01T03:00:06.024Z,100.00
2023-01-01T03:03:03.808Z,100.00
2023-01-01T03:06:01.232Z,100.00
2023-01-01T03:08:44.026Z,98.95
2023-01-01T03:11:16.591Z,100.00
2023-01-01T03:13:49.056Z,99.01
2023-01-01T03:16:27.890Z,98.25
2023-01-01T03:19:16.853Z,99.21
2023-01-01T03:22:02.346Z,100.00
2023-01-01T03:24:37.265Z,100.00
2023-01-01T03:27:13.021Z,100.00
2023-01-01T03:29:42.448Z,100.00
2023-01-01T03:32:14.634Z,100.00
2023-01-01T03:34:47.887Z,99.06
2023-01-01T03:37:21.768Z,100.00
2023-01-01T03:39:52.714Z,100.00
2023-01-01T03:42:35.006Z,100.00
2023-01-01T03:45:16.571Z,100.00
2023-01-01T03:47:44.009Z,100.00
2023-01-01T03:50:11.741Z,100.00
2023-01-01T03:53:02.261Z,100.00
2023-01-01T03:55:29.093Z,100.00
2023-01-01T03:58:03.964Z,100.00
2023-01-01T04:00:46.961Z,100.00
2023-01-01T04:03:29.764Z,100.00
2023-01-01T04:05:56.751Z,100.00
2023-01-01T04:08:23.694Z,100.00
2023-01-01T04:10:55.438Z,100.00
2023-01-01T04:13:22.384Z,100.00
2023-01-01T04:15:50.245Z,100.00
2023-01-01T04:18:17.239Z,100.00
2023-01-01T04:20:44.135Z,100.00
2023-01-01T04:23:11.156Z,100.00
2023-01-01T04:25:38.116Z,100.00
2023-01-01T04:28:05.356Z,100.00
2023-01-01T04:30:32.237Z,100.00
2023-01-01T04:32:59.178Z,100.00
2023-01-01T04:35:26.130Z,100.00
2023-01-01T04:37:53.085Z,100.00
2023-01-01T04:40:20.094Z,100.00
2023-01-01T04:42:47.139Z,100.00
2023-01-01T04:45:15.483Z,100.00
2023-01-01T04:47:43.171Z,100.00
2023-01-01T04:50:10.139Z,100.00
2023-01-01T04:52:37.532Z,100.00
2023-01-01T04:55:04.945Z,100.00
2023-01-01T04:57:32.058Z,100.00
2023-01-01T04:59:58.908Z,100.00
2023-01-01T05:02:26.752Z,100.00
2023-01-01T05:04:53.869Z,100.00
2023-01-01T05:07:20.807Z,100.00
2023-01-01T05:09:47.790Z,100.00
2023-01-01T05:12:14.709Z,100.00
2023-01-01T05:14:41.640Z,100.00
2023-01-01T05:17:08.535Z,100.00
2023-01-01T05:19:35.554Z,100.00
2023-01-01T05:22:08.582Z,100.00
2023-01-01T05:24:37.587Z,100.00
2023-01-01T05:27:04.539Z,100.00
2023-01-01T05:29:31.423Z,100.00
2023-01-01T05:31:58.345Z,100.00
2023-01-01T05:34:27.495Z,100.00
2023-01-01T05:36:54.388Z,98.69
2023-01-01T05:39:21.295Z,100.00
2023-01-01T05:41:48.284Z,100.00
2023-01-01T05:44:16.765Z,100.00
2023-01-01T05:46:43.664Z,100.00
2023-01-01T05:49:12.331Z,100.00
2023-01-01T05:54:05.438Z,95.19
2023-01-01T05:56:32.490Z,92.02
2023-01-01T05:58:59.466Z,88.45
2023-01-01T06:01:28.653Z,83.12
2023-01-01T06:03:56.934Z,81.56
2023-01-01T06:06:29.136Z,79.27
2023-01-01T06:08:59.064Z,78.44
2023-01-01T06:11:27.511Z,78.15
2023-01-01T06:13:57.146Z,77.59
2023-01-01T06:16:24.619Z,77.30
2023-01-01T06:18:51.722Z,77.88
2023-01-01T06:21:21.725Z,76.00
2023-01-01T06:23:48.672Z,73.40
2023-01-01T06:26:18.197Z,69.46
2023-01-01T06:28:46.324Z,69.75
2023-01-01T06:31:16.594Z,69.84
2023-01-01T06:33:44.958Z,67.87
2023-01-01T06:36:14.640Z,65.62
2023-01-01T06:38:43.767Z,65.75
2023-01-01T06:41:12.972Z,66.16
2023-01-01T06:43:40.111Z,66.84
2023-01-01T06:46:25.524Z,67.66
2023-01-01T06:49:01.291Z,68.85
2023-01-01T06:51:30.536Z,65.24
2023-01-01T06:54:02.867Z,65.67
2023-01-01T06:56:30.122Z,60.98
2023-01-01T06:58:57.715Z,58.30
2023-01-01T07:01:27.366Z,57.97
2023-01-01T07:04:00.123Z,59.90
2023-01-01T07:06:28.547Z,60.07
2023-01-01T07:08:55.764Z,59.83
2023-01-01T07:11:23.486Z,56.81
2023-01-01T07:13:50.543Z,57.40
2023-01-01T07:16:17.845Z,58.43
2023-01-01T07:18:45.761Z,53.75
2023-01-01T07:21:30.567Z,47.66
2023-01-01T07:24:03.166Z,45.77
2023-01-01T07:26:31.761Z,43.43
2023-01-01T07:29:06.296Z,40.24
2023-01-01T07:31:36.352Z,38.92
2023-01-01T07:34:03.359Z,39.18
2023-01-01T07:36:30.344Z,41.76
2023-01-01T07:38:57.275Z,43.33
2023-01-01T07:41:24.140Z,44.75
2023-01-01T07:43:51.905Z,43.00
2023-01-01T07:46:22.076Z,42.99
2023-01-01T07:48:49.193Z,42.11
2023-01-01T07:51:16.050Z,43.56
2023-01-01T07:53:42.975Z,43.91
2023-01-01T07:56:09.888Z,41.31
2023-01-01T07:58:40.813Z,38.93
2023-01-01T08:01:12.223Z,35.07
2023-01-01T08:03:39.350Z,35.52
2023-01-01T08:06:13.623Z,35.34
2023-01-01T08:08:41.254Z,36.18
2023-01-01T08:11:08.818Z,35.16
2023-01-01T08:13:35.983Z,36.90
2023-01-01T08:16:03.162Z,33.60
2023-01-01T08:18:30.371Z,33.07
2023-01-01T08:20:57.698Z,32.71
2023-01-01T08:23:24.713Z,32.55
2023-01-01T08:25:51.722Z,32.63
2023-01-01T08:28:18.632Z,32.82
2023-01-01T08:30:45.619Z,33.62
2023-01-01T08:33:12.500Z,35.99
2023-01-01T08:35:42.282Z,37.42
2023-01-01T08:38:11.852Z,38.71
2023-01-01T08:40:39.280Z,36.91
2023-01-01T08:43:06.515Z,36.78
2023-01-01T08:45:33.945Z,37.24
2023-01-01T08:48:00.910Z,36.81
2023-01-01T08:50:27.833Z,36.44
2023-01-01T08:52:55.503Z,36.18
2023-01-01T08:55:22.495Z,36.08
2023-01-01T08:57:49.420Z,36.12
2023-01-01T09:00:17.321Z,38.39
2023-01-01T09:02:44.375Z,38.62
2023-01-01T09:05:11.415Z,37.35
2023-01-01T09:07:38.593Z,37.30
2023-01-01T09:10:06.048Z,36.54
2023-01-01T09:12:33.057Z,36.21
2023-01-01T09:15:00.029Z,35.96
2023-01-01T09:17:26.966Z,34.82
2023-01-01T09:19:53.861Z,35.53
2023-01-01T09:22:20.711Z,34.96
2023-01-01T09:24:47.870Z,34.40
2023-01-01T09:27:14.824Z,33.76
2023-01-01T09:29:41.719Z,32.18
2023-01-01T09:32:08.587Z,33.17
2023-01-01T09:34:35.420Z,30.58
2023-01-01T09:37:02.391Z,31.78
2023-01-01T09:39:30.450Z,32.67
2023-01-01T09:42:18.785Z,33.83
2023-01-01T09:44:57.838Z,29.77
2023-01-01T09:47:33.962Z,28.62
2023-01-01T09:50:05.938Z,30.80
2023-01-01T09:52:56.952Z,31.15
2023-01-01T09:55:42.165Z,29.92
2023-01-01T09:58:11.936Z,27.61
2023-01-01T10:00:45.511Z,28.11
2023-01-01T10:03:25.226Z,27.29
2023-01-01T10:06:23.294Z,28.95
2023-01-01T10:09:02.439Z,28.07
2023-01-01T10:11:45.469Z,28.29
2023-01-01T10:14:37.834Z,27.79
2023-01-01T10:17:23.293Z,27.74
2023-01-01T10:19:53.783Z,26.89
2023-01-01T10:22:23.765Z,25.73
2023-01-01T10:25:01.324Z,24.65
2023-01-01T10:27:31.125Z,24.51
2023-01-01T10:30:04.330Z,25.22
2023-01-01T10:32:35.814Z,24.72
2023-01-01T10:35:14.013Z,27.04
2023-01-01T10:37:42.034Z,27.04
2023-01-01T10:40:27.045Z,27.11
2023-01-01T10:42:56.617Z,27.50
2023-01-01T10:45:44.419Z,27.24
2023-01-01T10:48:21.803Z,27.54
2023-01-01T10:51:01.860Z,27.74
2023-01-01T10:53:39.488Z,26.86
2023-01-01T10:56:24.063Z,26.27
2023-01-01T10:58:54.990Z,26.59
2023-01-01T11:01:23.812Z,25.20
2023-01-01T11:03:55.476Z,25.26
2023-01-01T11:06:25.193Z,26.92
2023-01-01T11:08:54.546Z,26.97
2023-01-01T11:11:45.305Z,26.31
2023-01-01T11:14:34.890Z,27.35
2023-01-01T11:17:02.056Z,27.07
2023-01-01T11:19:38.089Z,27.15
2023-01-01T11:22:06.223Z,27.40
2023-01-01T11:24:35.058Z,27.85
2023-01-01T11:27:34.164Z,26.80
2023-01-01T11:30:27.361Z,24.68
2023-01-01T11:33:04.973Z,23.91
2023-01-01T11:35:38.982Z,23.98
2023-01-01T11:38:05.981Z,23.61
2023-01-01T11:40:38.753Z,23.43
2023-01-01T11:43:07.110Z,23.15
2023-01-01T11:45:39.425Z,24.37
2023-01-01T11:48:17.446Z,23.51
2023-01-01T11:50:55.506Z,22.95
2023-01-01T11:53:22.354Z,22.56
2023-01-01T11:55:52.913Z,22.25
2023-01-01T11:58:40.051Z,21.73
2023-01-01T12:01:32.936Z,21.51
2023-01-01T12:04:11.225Z,21.48
2023-01-01T12:06:50.400Z,22.23
2023-01-01T12:10:13.306Z,22.00
2023-01-01T12:12:48.722Z,21.75
2023-01-01T12:15:20.437Z,20.92
2023-01-01T12:18:11.568Z,20.53
2023-01-01T12:20:58.810Z,21.19
2023-01-01T12:23:25.995Z,21.21
2023-01-01T12:26:07.525Z,21.73
2023-01-01T12:28:49.588Z,21.08
2023-01-01T12:32:00.623Z,21.03
2023-01-01T12:34:42.096Z,20.78
2023-01-01T12:37:29.988Z,20.66
2023-01-01T12:40:29.607Z,21.25
2023-01-01T12:43:17.086Z,23.21
2023-01-01T12:46:02.568Z,22.08
2023-01-01T12:48:38.442Z,21.56
2023-01-01T12:51:23.932Z,21.95
2023-01-01T12:54:09.222Z,22.12
2023-01-01T12:56:52.280Z,21.68
2023-01-01T12:59:30.907Z,21.00
2023-01-01T13:02:01.051Z,21.47
2023-01-01T13:04:28.132Z,22.14
2023-01-01T13:07:04.622Z,21.70
2023-01-01T13:09:46.049Z,21.70
2023-01-01T13:12:17.251Z,21.47
2023-01-01T13:14:46.237Z,22.22
2023-01-01T13:17:27.426Z,22.64
2023-01-01T13:20:21.502Z,22.81
2023-01-01T13:22:48.641Z,23.12
2023-01-01T13:25:16.384Z,23.08
2023-01-01T13:27:56.062Z,23.11
2023-01-01T13:30:43.374Z,23.61
2023-01-01T13:33:32.136Z,22.77
2023-01-01T13:36:12.079Z,22.54
2023-01-01T13:38:52.310Z,23.21
2023-01-01T13:41:43.392Z,22.58
2023-01-01T13:44:10.242Z,22.46
2023-01-01T13:46:52.338Z,22.72
2023-01-01T13:49:37.773Z,24.23
2023-01-01T13:52:25.546Z,24.73
2023-01-01T13:55:33.534Z,25.05
2023-01-01T13:58:00.412Z,25.27
2023-01-01T14:00:39.198Z,25.42
2023-01-01T14:03:15.901Z,25.86
2023-01-01T14:06:09.599Z,25.65
2023-01-01T14:08:37.907Z,25.86
2023-01-01T14:11:24.541Z,29.43
2023-01-01T14:13:51.546Z,32.93
2023-01-01T14:16:18.724Z,33.70
2023-01-01T14:18:49.597Z,35.17
2023-01-01T14:21:20.671Z,36.78
2023-01-01T14:23:52.990Z,37.87
2023-01-01T14:26:22.462Z,40.04
2023-01-01T14:28:53.234Z,40.23
2023-01-01T14:31:24.783Z,40.37
2023-01-01T14:33:51.844Z,39.20
2023-01-01T14:36:26.022Z,38.38
2023-01-01T14:38:55.902Z,39.43
2023-01-01T14:41:36.532Z,41.77
2023-01-01T14:44:09.619Z,43.02
2023-01-01T14:46:42.230Z,44.35
2023-01-01T14:49:11.631Z,45.41
2023-01-01T14:51:44.914Z,46.19
2023-01-01T14:54:18.920Z,45.86
2023-01-01T14:56:51.306Z,45.60
2023-01-01T14:59:18.170Z,44.91
2023-01-01T15:01:45.326Z,44.50
2023-01-01T15:04:24.427Z,44.86
2023-01-01T15:06:55.308Z,45.51
2023-01-01T15:09:22.330Z,45.25
2023-01-01T15:11:52.707Z,45.80
2023-01-01T15:14:39.328Z,45.44
2023-01-01T15:17:07.249Z,44.89
2023-01-01T15:19:35.559Z,44.88
2023-01-01T15:22:10.076Z,45.83
2023-01-01T15:24:38.350Z,47.35
2023-01-01T15:27:08.437Z,47.12
2023-01-01T15:29:41.389Z,47.06
2023-01-01T15:32:14.592Z,48.26
2023-01-01T15:34:43.465Z,48.43
2023-01-01T15:37:35.590Z,48.50
2023-01-01T15:40:14.534Z,47.79
2023-01-01T15:42:48.965Z,48.61
2023-01-01T15:45:23.678Z,51.21
2023-01-01T15:47:52.791Z,51.50
2023-01-01T15:50:30.265Z,51.80
2023-01-01T15:53:00.398Z,51.37
2023-01-01T15:55:31.574Z,51.21
2023-01-01T15:57:59.705Z,54.89
2023-01-01T16:00:29.680Z,55.37
2023-01-01T16:03:12.980Z,56.66
2023-01-01T16:05:47.343Z,54.47
2023-01-01T16:08:14.246Z,54.13
2023-01-01T16:10:41.202Z,54.58
2023-01-01T16:13:08.190Z,53.88
2023-01-01T16:15:36.451Z,55.60
2023-01-01T16:18:03.427Z,54.60
2023-01-01T16:20:30.389Z,54.69
2023-01-01T16:22:57.319Z,57.45
2023-01-01T16:25:26.811Z,58.05
2023-01-01T16:27:53.670Z,58.04
2023-01-01T16:30:25.677Z,57.53
2023-01-01T16:32:52.865Z,57.77
2023-01-01T16:35:20.047Z,57.22
2023-01-01T16:37:46.989Z,57.53
2023-01-01T16:40:14.049Z,57.52
2023-01-01T16:42:41.291Z,58.22
2023-01-01T16:45:14.346Z,58.54
2023-01-01T16:47:41.837Z,59.57
2023-01-01T16:50:10.146Z,59.61
2023-01-01T16:52:42.749Z,58.38
2023-01-01T16:55:11.503Z,56.31
2023-01-01T16:57:40.155Z,57.08
2023-01-01T17:00:09.364Z,57.96
2023-01-01T17:02:36.587Z,58.00
2023-01-01T17:05:03.906Z,57.51
2023-01-01T17:07:30.803Z,57.41
2023-01-01T17:09:58.024Z,56.41
2023-01-01T17:12:24.961Z,56.89
2023-01-01T17:14:51.859Z,58.14
2023-01-01T17:17:18.772Z,58.04
2023-01-01T17:19:45.663Z,57.11
2023-01-01T17:22:12.572Z,56.51
2023-01-01T17:24:39.496Z,55.70
2023-01-01T17:27:06.379Z,55.14
2023-01-01T17:29:33.289Z,54.55
2023-01-01T17:32:00.722Z,54.57
2023-01-01T17:34:27.675Z,53.88
2023-01-01T17:36:54.621Z,53.53
2023-01-01T17:39:21.559Z,52.93
2023-01-01T17:41:49.227Z,53.14
2023-01-01T17:44:16.263Z,54.74
2023-01-01T17:46:44.590Z,55.75
2023-01-01T17:49:11.844Z,54.88
2023-01-01T17:51:39.510Z,54.44
2023-01-01T17:54:10.376Z,55.19
2023-01-01T17:56:37.342Z,57.85
2023-01-01T17:59:04.428Z,59.45
2023-01-01T18:01:33.143Z,58.79
2023-01-01T18:04:03.054Z,60.07
2023-01-01T18:06:31.619Z,60.21
2023-01-01T18:09:03.788Z,60.81
2023-01-01T18:11:32.336Z,61.25
2023-01-01T18:14:01.322Z,61.04
2023-01-01T18:16:30.823Z,63.17
2023-01-01T18:19:01.118Z,64.47
2023-01-01T18:21:28.401Z,64.34
2023-01-01T18:23:56.996Z,61.21
2023-01-01T18:26:26.720Z,61.20
2023-01-01T18:29:01.864Z,60.28
2023-01-01T18:31:31.375Z,58.63
2023-01-01T18:33:59.185Z,59.58
2023-01-01T18:36:29.856Z,60.69
2023-01-01T18:39:23.400Z,61.34
2023-01-01T18:42:12.041Z,60.27
2023-01-01T18:44:39.334Z,61.82
2023-01-01T18:47:06.386Z,61.77
2023-01-01T18:49:35.677Z,61.12
2023-01-01T18:52:08.347Z,61.42
2023-01-01T18:54:35.820Z,61.15
2023-01-01T18:57:26.810Z,61.56
2023-01-01T18:59:58.386Z,61.73
2023-01-01T19:02:38.851Z,63.11
2023-01-01T19:05:27.381Z,61.91
2023-01-01T19:08:23.948Z,62.68
2023-01-01T19:10:57.171Z,63.28
2023-01-01T19:13:35.947Z,65.74
2023-01-01T19:16:29.841Z,64.07
2023-01-01T19:19:10.987Z,63.09
2023-01-01T19:21:41.698Z,63.53
2023-01-01T19:24:18.513Z,63.02
2023-01-01T19:26:46.307Z,64.00
2023-01-01T19:29:21.834Z,66.95
2023-01-01T19:31:53.554Z,67.34
2023-01-01T19:34:21.801Z,67.12
2023-01-01T19:36:49.658Z,66.83
2023-01-01T19:39:17.471Z,65.40
2023-01-01T19:41:44.609Z,63.18
2023-01-01T19:44:11.581Z,61.64
2023-01-01T19:46:38.927Z,62.17
2023-01-01T19:49:06.034Z,62.75
2023-01-01T19:51:33.031Z,64.94
2023-01-01T19:54:00.115Z,66.81
2023-01-01T19:56:27.246Z,68.09
2023-01-01T19:58:54.279Z,70.14
2023-01-01T20:01:21.546Z,70.59
2023-01-01T20:03:54.569Z,69.71
2023-01-01T20:06:23.423Z,69.82
2023-01-01T20:08:50.486Z,69.65
2023-01-01T20:11:17.519Z,68.66
2023-01-01T20:13:44.437Z,68.60
2023-01-01T20:16:11.407Z,67.01
2023-01-01T20:18:38.723Z,65.54
2023-01-01T20:21:26.720Z,66.36
2023-01-01T20:23:55.425Z,65.26
2023-01-01T20:26:23.954Z,65.66
2023-01-01T20:29:09.717Z,65.02
2023-01-01T20:31:37.393Z,65.76
2023-01-01T20:34:04.830Z,64.50
2023-01-01T20:36:50.459Z,65.85
2023-01-01T20:39:17.430Z,65.19
2023-01-01T20:41:44.457Z,65.00
2023-01-01T20:44:11.477Z,64.27
2023-01-01T20:46:38.568Z,63.85
2023-01-01T20:49:05.948Z,63.78
2023-01-01T20:51:33.225Z,61.95
2023-01-01T20:54:00.457Z,63.08
2023-01-01T20:56:27.394Z,65.28
2023-01-01T20:58:59.587Z,66.43
2023-01-01T21:01:30.322Z,69.82
2023-01-01T21:03:57.697Z,69.57
2023-01-01T21:06:25.135Z,69.42
2023-01-01T21:08:52.838Z,67.95
2023-01-01T21:11:19.954Z,67.46
2023-01-01T21:13:48.023Z,70.03
2023-01-01T21:16:31.050Z,68.89
2023-01-01T21:18:59.153Z,69.58
2023-01-01T21:21:31.205Z,68.49
2023-01-01T21:24:06.161Z,70.91
2023-01-01T21:26:36.738Z,69.81
2023-01-01T21:29:13.870Z,69.31
2023-01-01T21:31:42.900Z,69.06
2023-01-01T21:34:40.332Z,68.37
2023-01-01T21:37:51.020Z,67.19
2023-01-01T21:40:24.463Z,67.94
2023-01-01T21:43:09.073Z,66.83
2023-01-01T21:45:43.009Z,65.75
2023-01-01T21:48:28.542Z,67.66
2023-01-01T21:50:55.885Z,65.62
2023-01-01T21:53:28.724Z,67.03
2023-01-01T21:55:57.203Z,68.49
2023-01-01T21:59:01.846Z,69.65
2023-01-01T22:01:49.220Z,70.32
2023-01-01T22:04:21.515Z,70.18
2023-01-01T22:06:51.446Z,70.30
2023-01-01T22:09:24.746Z,70.33
2023-01-01T22:11:57.095Z,70.40
2023-01-01T22:14:27.594Z,71.13
2023-01-01T22:16:58.376Z,70.59
2023-01-01T22:19:32.317Z,70.89
2023-01-01T22:21:59.754Z,71.14
2023-01-01T22:24:35.142Z,70.42
2023-01-01T22:27:28.766Z,70.17
2023-01-01T22:30:09.132Z,69.78
2023-01-01T22:32:36.158Z,71.11
2023-01-01T22:35:18.343Z,70.92
2023-01-01T22:37:49.538Z,70.28
2023-01-01T22:40:29.088Z,69.75
2023-01-01T22:43:15.435Z,68.89
2023-01-01T22:45:48.864Z,69.31
2023-01-01T22:48:37.821Z,68.02
2023-01-01T22:51:21.680Z,67.35
2023-01-01T22:53:49.178Z,66.28
2023-01-01T22:56:16.335Z,66.44
2023-01-01T22:58:43.264Z,66.39
2023-01-01T23:01:10.804Z,67.16
2023-01-01T23:03:37.909Z,67.13
2023-01-01T23:06:05.286Z,67.33
2023-01-01T23:08:32.307Z,67.12
2023-01-01T23:11:00.212Z,68.10
2023-01-01T23:13:45.473Z,67.67
2023-01-01T23:16:12.639Z,67.19
2023-01-01T23:18:39.547Z,68.05
2023-01-01T23:21:24.181Z,67.69
2023-01-01T23:23:56.327Z,69.75
2023-01-01T23:26:24.400Z,71.49
2023-01-01T23:28:52.912Z,70.38
2023-01-01T23:31:25.108Z,70.94
2023-01-01T23:33:53.222Z,71.37
2023-01-01T23:36:20.204Z,70.12
2023-01-01T23:38:47.198Z,70.57
2023-01-01T23:41:14.098Z,71.08
2023-01-01T23:43:43.486Z,71.62
2023-01-01T23:46:13.274Z,73.58
2023-01-01T23:48:46.468Z,72.78
2023-01-01T23:51:14.144Z,72.85
2023-01-01T23:53:41.140Z,72.44
2023-01-01T23:56:08.346Z,71.92
2023-01-01T23:58:35.206Z,72.11
